sensor_id;sensor_type;location;lat;lon;timestamp;pressure;altitude;pressure_sealevel;temperature;humidity
59170;BME280;52474;52.236;5.114;2023-08-06T00:00:48;100500.38;;;15.22;100.00
59170;BME280;52474;52.236;5.114;2023-08-06T00:03:47;100479.72;;;15.08;100.00
59170;BME280;52474;52.236;5.114;2023-08-06T00:06:30;100476.88;;;15.10;100.00
59170;BME280;52474;52.236;5.114;2023-08-06T00:09:23;100453.09;;;14.92;100.00
59170;BME280;52474;52.236;5.114;2023-08-06T00:12:10;100535.50;;;15.42;100.00
59170;BME280;52474;52.236;5.114;2023-08-06T00:14:54;100455.44;;;14.87;100.00
59170;BME280;52474;52.236;5.114;2023-08-06T00:17:46;100450.72;;;14.89;100.00
59170;BME280;52474;52.236;5.114;2023-08-06T00:20:45;100485.22;;;15.15;100.00
59170;BME280;52474;52.236;5.114;2023-08-06T00:23:28;100527.53;;;15.34;100.00
59170;BME280;52474;52.236;5.114;2023-08-06T00:26:05;100525.19;;;15.31;100.00
59170;BME280;52474;52.236;5.114;2023-08-06T00:28:40;100504.22;;;15.12;100.00
59170;BME280;52474;52.236;5.114;2023-08-06T00:31:27;100453.75;;;14.77;100.00
59170;BME280;52474;52.236;5.114;2023-08-06T00:34:22;100488.06;;;15.05;100.00
59170;BME280;52474;52.236;5.114;2023-08-06T00:37:45;100500.22;;;15.08;100.00
59170;BME280;52474;52.236;5.114;2023-08-06T00:40:24;100454.25;;;14.81;100.00
59170;BME280;52474;52.236;5.114;2023-08-06T00:42:58;100500.06;;;15.09;100.00
59170;BME280;52474;52.236;5.114;2023-08-06T00:45:40;100461.94;;;14.84;100.00
59170;BME280;52474;52.236;5.114;2023-08-06T00:48:28;100450.59;;;14.82;100.00
59170;BME280;52474;52.236;5.114;2023-08-06T00:51:14;100517.03;;;15.24;100.00
59170;BME280;52474;52.236;5.114;2023-08-06T00:57:13;100524.88;;;15.26;100.00
59170;BME280;52474;52.236;5.114;2023-08-06T01:00:14;100449.41;;;14.76;100.00
59170;BME280;52474;52.236;5.114;2023-08-06T01:02:50;100471.06;;;14.98;100.00
59170;BME280;52474;52.236;5.114;2023-08-06T01:05:25;100481.91;;;15.05;100.00
59170;BME280;52474;52.236;5.114;2023-08-06T01:08:19;100518.38;;;15.29;100.00
59170;BME280;52474;52.236;5.114;2023-08-06T01:14:03;100501.56;;;15.12;100.00
59170;BME280;52474;52.236;5.114;2023-08-06T01:16:43;100436.75;;;14.78;100.00
59170;BME280;52474;52.236;5.114;2023-08-06T01:19:22;100454.91;;;14.91;100.00
59170;BME280;52474;52.236;5.114;2023-08-06T01:21:56;100486.72;;;15.09;100.00
59170;BME280;52474;52.236;5.114;2023-08-06T01:24:33;100465.25;;;14.94;100.00
59170;BME280;52474;52.236;5.114;2023-08-06T01:27:11;100493.06;;;15.16;100.00
59170;BME280;52474;52.236;5.114;2023-08-06T01:29:56;100483.03;;;15.10;100.00
59170;BME280;52474;52.236;5.114;2023-08-06T01:32:33;100485.72;;;15.10;100.00
59170;BME280;52474;52.236;5.114;2023-08-06T01:35:10;100510.56;;;15.19;100.00
59170;BME280;52474;52.236;5.114;2023-08-06T01:37:45;100487.72;;;15.08;100.00
59170;BME280;52474;52.236;5.114;2023-08-06T01:40:24;100496.22;;;15.12;100.00
59170;BME280;52474;52.236;5.114;2023-08-06T01:42:59;100520.06;;;15.21;100.00
59170;BME280;52474;52.236;5.114;2023-08-06T01:45:34;100513.72;;;15.14;100.00
59170;BME280;52474;52.236;5.114;2023-08-06T01:48:16;100519.53;;;15.18;100.00
59170;BME280;52474;52.236;5.114;2023-08-06T01:50:49;100528.22;;;15.20;100.00
59170;BME280;52474;52.236;5.114;2023-08-06T01:53:21;100530.72;;;15.21;100.00
59170;BME280;52474;52.236;5.114;2023-08-06T01:55:57;100531.19;;;15.25;100.00
59170;BME280;52474;52.236;5.114;2023-08-06T01:58:30;100486.56;;;15.02;100.00
59170;BME280;52474;52.236;5.114;2023-08-06T02:01:03;100517.88;;;15.25;100.00
59170;BME280;52474;52.236;5.114;2023-08-06T02:03:35;100492.06;;;15.09;100.00
59170;BME280;52474;52.236;5.114;2023-08-06T02:06:07;100509.22;;;15.15;100.00
59170;BME280;52474;52.236;5.114;2023-08-06T02:08:37;100490.25;;;15.01;100.00
59170;BME280;52474;52.236;5.114;2023-08-06T02:11:08;100500.72;;;15.03;100.00
59170;BME280;52474;52.236;5.114;2023-08-06T02:13:46;100518.03;;;15.15;100.00
59170;BME280;52474;52.236;5.114;2023-08-06T02:16:19;100529.72;;;15.22;100.00
59170;BME280;52474;52.236;5.114;2023-08-06T02:18:57;100534.38;;;15.20;100.00
59170;BME280;52474;52.236;5.114;2023-08-06T02:21:31;100512.53;;;15.09;100.00
59170;BME280;52474;52.236;5.114;2023-08-06T02:24:04;100531.53;;;15.22;100.00
59170;BME280;52474;52.236;5.114;2023-08-06T02:26:36;100512.38;;;15.10;100.00
59170;BME280;52474;52.236;5.114;2023-08-06T02:29:09;100531.69;;;15.20;100.00
59170;BME280;52474;52.236;5.114;2023-08-06T02:31:45;100526.69;;;15.25;100.00
59170;BME280;52474;52.236;5.114;2023-08-06T02:34:18;100509.88;;;15.17;100.00
59170;BME280;52474;52.236;5.114;2023-08-06T02:36:49;100527.03;;;15.22;100.00
59170;BME280;52474;52.236;5.114;2023-08-06T02:39:22;100506.22;;;15.10;100.00
59170;BME280;52474;52.236;5.114;2023-08-06T02:41:54;100531.19;;;15.25;100.00
59170;BME280;52474;52.236;5.114;2023-08-06T02:44:27;100525.38;;;15.30;100.00
59170;BME280;52474;52.236;5.114;2023-08-06T02:47:01;100520.06;;;15.21;100.00
59170;BME280;52474;52.236;5.114;2023-08-06T02:49:35;100506.03;;;15.19;100.00
59170;BME280;52474;52.236;5.114;2023-08-06T02:52:07;100511.03;;;15.22;100.00
59170;BME280;52474;52.236;5.114;2023-08-06T02:54:40;100494.06;;;15.07;100.00
59170;BME280;52474;52.236;5.114;2023-08-06T02:57:16;100492.38;;;15.06;100.00
59170;BME280;52474;52.236;5.114;2023-08-06T02:59:55;100509.38;;;15.13;100.00
59170;BME280;52474;52.236;5.114;2023-08-06T03:02:30;100500.22;;;15.08;100.00
59170;BME280;52474;52.236;5.114;2023-08-06T03:05:24;100512.56;;;15.17;100.00
59170;BME280;52474;52.236;5.114;2023-08-06T03:08:05;100512.56;;;15.17;100.00
59170;BME280;52474;52.236;5.114;2023-08-06T03:10:44;100528.53;;;15.25;100.00
59170;BME280;52474;52.236;5.114;2023-08-06T03:13:19;100513.69;;;15.22;100.00
59170;BME280;52474;52.236;5.114;2023-08-06T03:15:57;100492.53;;;15.13;100.00
59170;BME280;52474;52.236;5.114;2023-08-06T03:18:32;100497.06;;;15.12;100.00
59170;BME280;52474;52.236;5.114;2023-08-06T03:21:07;100491.56;;;15.14;100.00
59170;BME280;52474;52.236;5.114;2023-08-06T03:23:46;100471.91;;;14.90;100.00
59170;BME280;52474;52.236;5.114;2023-08-06T03:26:18;100515.22;;;15.17;100.00
59170;BME280;52474;52.236;5.114;2023-08-06T03:28:49;100495.22;;;15.13;100.00
59170;BME280;52474;52.236;5.114;2023-08-06T03:31:23;100511.19;;;15.29;100.00
59170;BME280;52474;52.236;5.114;2023-08-06T03:34:03;100491.72;;;15.12;100.00
59170;BME280;52474;52.236;5.114;2023-08-06T03:36:34;100499.22;;;15.17;100.00
59170;BME280;52474;52.236;5.114;2023-08-06T03:39:09;100522.34;;;15.33;100.00
59170;BME280;52474;52.236;5.114;2023-08-06T03:41:46;100507.38;;;15.23;100.00
59170;BME280;52474;52.236;5.114;2023-08-06T03:44:21;100510.22;;;15.22;100.00
59170;BME280;52474;52.236;5.114;2023-08-06T03:46:56;100502.72;;;15.17;100.00
59170;BME280;52474;52.236;5.114;2023-08-06T03:49:32;100516.53;;;15.29;100.00
59170;BME280;52474;52.236;5.114;2023-08-06T03:52:03;100500.53;;;15.21;100.00
59170;BME280;52474;52.236;5.114;2023-08-06T03:54:37;100520.19;;;15.28;100.00
59170;BME280;52474;52.236;5.114;2023-08-06T03:57:17;100521.69;;;15.31;100.00
59170;BME280;52474;52.236;5.114;2023-08-06T03:59:55;100514.84;;;15.28;100.00
59170;BME280;52474;52.236;5.114;2023-08-06T04:02:35;100524.19;;;15.32;100.00
59170;BME280;52474;52.236;5.114;2023-08-06T04:05:07;100505.72;;;15.14;100.00
59170;BME280;52474;52.236;5.114;2023-08-06T04:07:39;100526.69;;;15.25;100.00
59170;BME280;52474;52.236;5.114;2023-08-06T04:10:14;100497.22;;;15.11;100.00
59170;BME280;52474;52.236;5.114;2023-08-06T04:12:48;100529.19;;;15.27;100.00
59170;BME280;52474;52.236;5.114;2023-08-06T04:15:21;100509.88;;;15.09;100.00
59170;BME280;52474;52.236;5.114;2023-08-06T04:17:57;100492.06;;;15.09;100.00
59170;BME280;52474;52.236;5.114;2023-08-06T04:20:28;100527.69;;;15.33;100.00
59170;BME280;52474;52.236;5.114;2023-08-06T04:22:57;100494.22;;;15.06;100.00
59170;BME280;52474;52.236;5.114;2023-08-06T04:25:28;100533.03;;;15.24;100.00
59170;BME280;52474;52.236;5.114;2023-08-06T04:28:04;100508.25;;;14.99;100.00
59170;BME280;52474;52.236;5.114;2023-08-06T04:30:35;100536.38;;;15.27;100.00
59170;BME280;52474;52.236;5.114;2023-08-06T04:33:08;100500.06;;;15.01;100.00
59170;BME280;52474;52.236;5.114;2023-08-06T04:35:38;100529.38;;;15.17;100.00
59170;BME280;52474;52.236;5.114;2023-08-06T04:38:09;100546.38;;;15.24;100.00
59170;BME280;52474;52.236;5.114;2023-08-06T04:40:43;100547.41;;;15.23;100.00
59170;BME280;52474;52.236;5.114;2023-08-06T04:43:17;100539.56;;;15.22;100.00
59170;BME280;52474;52.236;5.114;2023-08-06T04:45:53;100542.25;;;15.14;100.00
59170;BME280;52474;52.236;5.114;2023-08-06T04:48:25;100563.41;;;15.23;100.00
59170;BME280;52474;52.236;5.114;2023-08-06T04:50:58;100545.72;;;15.14;100.00
59170;BME280;52474;52.236;5.114;2023-08-06T04:53:33;100545.53;;;15.16;100.00
59170;BME280;52474;52.236;5.114;2023-08-06T04:56:04;100552.06;;;15.21;100.00
59170;BME280;52474;52.236;5.114;2023-08-06T04:58:37;100541.38;;;15.13;100.00
59170;BME280;52474;52.236;5.114;2023-08-06T05:01:11;100559.72;;;15.24;100.00
59170;BME280;52474;52.236;5.114;2023-08-06T05:03:47;100535.56;;;15.10;100.00
59170;BME280;52474;52.236;5.114;2023-08-06T05:06:20;100523.56;;;15.06;100.00
59170;BME280;52474;52.236;5.114;2023-08-06T05:08:49;100556.03;;;15.25;100.00
59170;BME280;52474;52.236;5.114;2023-08-06T05:11:20;100563.53;;;15.30;100.00
59170;BME280;52474;52.236;5.114;2023-08-06T05:14:10;100539.41;;;15.07;100.00
59170;BME280;52474;52.236;5.114;2023-08-06T05:16:47;100561.88;;;15.29;100.00
59170;BME280;52474;52.236;5.114;2023-08-06T05:19:22;100543.88;;;15.15;100.00
59170;BME280;52474;52.236;5.114;2023-08-06T05:21:59;100575.56;;;15.34;100.00
59170;BME280;52474;52.236;5.114;2023-08-06T05:24:33;100522.91;;;14.95;100.00
59170;BME280;52474;52.236;5.114;2023-08-06T05:27:06;100557.56;;;15.20;100.00
59170;BME280;52474;52.236;5.114;2023-08-06T05:29:35;100556.88;;;15.18;100.00
59170;BME280;52474;52.236;5.114;2023-08-06T05:32:08;100561.56;;;15.24;100.00
59170;BME280;52474;52.236;5.114;2023-08-06T05:34:40;100598.56;;;15.43;100.00
59170;BME280;52474;52.236;5.114;2023-08-06T05:37:13;100575.88;;;15.23;100.00
59170;BME280;52474;52.236;5.114;2023-08-06T05:39:48;100576.22;;;15.20;100.00
59170;BME280;52474;52.236;5.114;2023-08-06T05:42:20;100605.56;;;15.44;100.00
59170;BME280;52474;52.236;5.114;2023-08-06T05:44:52;100606.72;;;15.42;100.00
59170;BME280;52474;52.236;5.114;2023-08-06T05:47:24;100585.72;;;15.22;100.00
59170;BME280;52474;52.236;5.114;2023-08-06T06:18:15;100565.38;;;14.72;100.00
59170;BME280;52474;52.236;5.114;2023-08-06T06:31:49;100621.72;;;14.86;100.00
59170;BME280;52474;52.236;5.114;2023-08-06T06:34:04;100605.19;;;14.66;100.00
59170;BME280;52474;52.236;5.114;2023-08-06T06:42:09;100669.22;;;14.90;100.00
59170;BME280;52474;52.236;5.114;2023-08-06T07:08:09;100645.31;;;14.56;100.00
59170;BME280;52474;52.236;5.114;2023-08-06T07:11:34;100668.13;;;14.58;100.00
59170;BME280;52474;52.236;5.114;2023-08-06T07:19:17;100694.31;;;14.63;100.00
59170;BME280;52474;52.236;5.114;2023-08-06T07:22:10;100647.88;;;14.39;100.00
59170;BME280;52474;52.236;5.114;2023-08-06T07:24:52;100654.84;;;14.32;100.00
59170;BME280;52474;52.236;5.114;2023-08-06T07:27:34;100683.88;;;14.52;100.00
59170;BME280;52474;52.236;5.114;2023-08-06T07:30:08;100709.13;;;14.57;100.00
59170;BME280;52474;52.236;5.114;2023-08-06T07:35:35;100635.19;;;13.91;100.00
59170;BME280;52474;52.236;5.114;2023-08-06T07:41:35;100632.50;;;13.91;100.00
59170;BME280;52474;52.236;5.114;2023-08-06T07:44:32;100590.56;;;13.59;100.00
59170;BME280;52474;52.236;5.114;2023-08-06T07:47:05;100639.47;;;13.84;100.00
59170;BME280;52474;52.236;5.114;2023-08-06T07:49:40;100546.22;;;13.23;100.00
59170;BME280;52474;52.236;5.114;2023-08-06T07:52:23;100710.41;;;14.27;100.00
59170;BME280;52474;52.236;5.114;2023-08-06T07:55:08;100704.59;;;14.24;100.00
59170;BME280;52474;52.236;5.114;2023-08-06T07:57:43;100652.66;;;13.93;100.00
59170;BME280;52474;52.236;5.114;2023-08-06T08:00:25;100583.84;;;13.46;100.00
59170;BME280;52474;52.236;5.114;2023-08-06T08:03:22;100727.50;;;14.43;100.00
59170;BME280;52474;52.236;5.114;2023-08-06T08:06:17;100715.28;;;14.32;100.00
59170;BME280;52474;52.236;5.114;2023-08-06T08:08:53;100631.75;;;13.81;100.00
59170;BME280;52474;52.236;5.114;2023-08-06T08:11:26;100668.34;;;14.05;100.00
59170;BME280;52474;52.236;5.114;2023-08-06T08:14:05;100589.44;;;13.61;100.00
59170;BME280;52474;52.236;5.114;2023-08-06T08:16:35;100717.69;;;14.51;100.00
59170;BME280;52474;52.236;5.114;2023-08-06T08:19:24;100728.13;;;14.63;100.00
59170;BME280;52474;52.236;5.114;2023-08-06T08:22:07;100610.69;;;13.87;100.00
59170;BME280;52474;52.236;5.114;2023-08-06T08:24:56;100670.34;;;14.37;100.00
59170;BME280;52474;52.236;5.114;2023-08-06T08:32:59;100740.66;;;14.78;100.00
59170;BME280;52474;52.236;5.114;2023-08-06T08:35:48;100699.44;;;14.56;100.00
59170;BME280;52474;52.236;5.114;2023-08-06T08:41:41;100638.34;;;14.29;100.00
59170;BME280;52474;52.236;5.114;2023-08-06T08:44:29;100748.75;;;15.03;100.00
59170;BME280;52474;52.236;5.114;2023-08-06T08:47:08;100660.09;;;14.50;100.00
59170;BME280;52474;52.236;5.114;2023-08-06T08:49:58;100620.56;;;14.37;100.00
59170;BME280;52474;52.236;5.114;2023-08-06T08:52:31;100663.16;;;14.64;100.00
59170;BME280;52474;52.236;5.114;2023-08-06T08:55:03;100718.72;;;15.01;100.00
59170;BME280;52474;52.236;5.114;2023-08-06T08:57:34;100742.31;;;15.22;100.00
59170;BME280;52474;52.236;5.114;2023-08-06T09:00:08;100717.63;;;15.20;100.00
59170;BME280;52474;52.236;5.114;2023-08-06T09:02:44;100728.31;;;15.36;100.00
59170;BME280;52474;52.236;5.114;2023-08-06T09:05:26;100748.50;;;15.47;100.00
59170;BME280;52474;52.236;5.114;2023-08-06T09:08:05;100760.69;;;15.50;100.00
59170;BME280;52474;52.236;5.114;2023-08-06T09:10:40;100755.00;;;15.53;100.00
59170;BME280;52474;52.236;5.114;2023-08-06T09:13:14;100758.53;;;15.61;100.00
59170;BME280;52474;52.236;5.114;2023-08-06T09:15:48;100767.22;;;15.63;100.00
59170;BME280;52474;52.236;5.114;2023-08-06T09:18:28;100740.00;;;15.52;100.00
59170;BME280;52474;52.236;5.114;2023-08-06T09:21:02;100729.00;;;15.55;100.00
59170;BME280;52474;52.236;5.114;2023-08-06T09:23:36;100688.94;;;15.30;100.00
59170;BME280;52474;52.236;5.114;2023-08-06T09:26:13;100688.59;;;15.25;100.00
59170;BME280;52474;52.236;5.114;2023-08-06T09:28:54;100772.25;;;15.83;100.00
59170;BME280;52474;52.236;5.114;2023-08-06T09:31:44;100779.44;;;15.91;100.00
59170;BME280;52474;52.236;5.114;2023-08-06T09:34:22;100749.56;;;15.79;100.00
59170;BME280;52474;52.236;5.114;2023-08-06T09:36:54;100794.63;;;15.90;100.00
59170;BME280;52474;52.236;5.114;2023-08-06T09:44:04;100809.13;;;16.04;100.00
59170;BME280;52474;52.236;5.114;2023-08-06T09:46:37;100808.94;;;15.97;100.00
59170;BME280;52474;52.236;5.114;2023-08-06T09:49:18;100814.31;;;15.81;100.00
59170;BME280;52474;52.236;5.114;2023-08-06T09:51:53;100751.00;;;15.40;100.00
59170;BME280;52474;52.236;5.114;2023-08-06T09:54:34;100802.25;;;15.68;100.00
59170;BME280;52474;52.236;5.114;2023-08-06T09:57:19;100807.94;;;15.65;100.00
59170;BME280;52474;52.236;5.114;2023-08-06T10:00:06;100764.31;;;15.32;100.00
59170;BME280;52474;52.236;5.114;2023-08-06T10:02:55;100758.81;;;15.25;100.00
59170;BME280;52474;52.236;5.114;2023-08-06T10:05:36;100757.78;;;15.18;100.00
59170;BME280;52474;52.236;5.114;2023-08-06T10:08:09;100818.59;;;15.65;100.00
59170;BME280;52474;52.236;5.114;2023-08-06T10:10:46;100801.19;;;15.45;100.00
59170;BME280;52474;52.236;5.114;2023-08-06T10:13:17;100776.69;;;15.41;100.00
59170;BME280;52474;52.236;5.114;2023-08-06T10:15:56;100741.63;;;15.12;100.00
59170;BME280;52474;52.236;5.114;2023-08-06T10:18:39;100821.72;;;15.53;100.00
59170;BME280;52474;52.236;5.114;2023-08-06T10:21:15;100824.09;;;15.56;100.00
59170;BME280;52474;52.236;5.114;2023-08-06T10:23:58;100810.03;;;15.37;100.00
59170;BME280;52474;52.236;5.114;2023-08-06T10:26:36;100811.91;;;15.53;100.00
59170;BME280;52474;52.236;5.114;2023-08-06T10:29:35;100825.25;;;15.53;100.00
59170;BME280;52474;52.236;5.114;2023-08-06T10:32:07;100823.44;;;15.62;100.00
59170;BME280;52474;52.236;5.114;2023-08-06T10:34:59;100829.59;;;15.62;100.00
59170;BME280;52474;52.236;5.114;2023-08-06T10:37:35;100773.84;;;15.35;100.00
59170;BME280;52474;52.236;5.114;2023-08-06T10:40:06;100782.84;;;15.34;100.00
59170;BME280;52474;52.236;5.114;2023-08-06T10:42:35;100766.16;;;15.23;100.00
59170;BME280;52474;52.236;5.114;2023-08-06T10:45:26;100736.91;;;14.97;100.00
59170;BME280;52474;52.236;5.114;2023-08-06T10:48:00;100834.44;;;15.67;100.00
59170;BME280;52474;52.236;5.114;2023-08-06T10:50:28;100821.72;;;15.53;100.00
59170;BME280;52474;52.236;5.114;2023-08-06T10:53:23;100767.63;;;15.18;100.00
59170;BME280;52474;52.236;5.114;2023-08-06T10:55:50;100843.63;;;15.64;100.00
59170;BME280;52474;52.236;5.114;2023-08-06T10:58:17;100845.50;;;15.72;100.00
59170;BME280;52474;52.236;5.114;2023-08-06T11:00:44;100826.94;;;15.62;100.00
59170;BME280;52474;52.236;5.114;2023-08-06T11:03:11;100842.13;;;15.62;100.00
59170;BME280;52474;52.236;5.114;2023-08-06T11:05:53;100836.63;;;15.63;100.00
59170;BME280;52474;52.236;5.114;2023-08-06T11:08:27;100852.97;;;15.68;100.00
59170;BME280;52474;52.236;5.114;2023-08-06T11:10:55;100796.19;;;15.42;100.00
59170;BME280;52474;52.236;5.114;2023-08-06T11:13:30;100854.19;;;15.82;100.00
59170;BME280;52474;52.236;5.114;2023-08-06T11:16:02;100792.53;;;15.43;100.00
59170;BME280;52474;52.236;5.114;2023-08-06T11:18:43;100854.19;;;15.74;100.00
59170;BME280;52474;52.236;5.114;2023-08-06T11:21:14;100845.94;;;15.67;100.00
59170;BME280;52474;52.236;5.114;2023-08-06T11:23:44;100855.66;;;15.68;100.00
59170;BME280;52474;52.236;5.114;2023-08-06T11:26:22;100835.78;;;15.63;100.00
59170;BME280;52474;52.236;5.114;2023-08-06T11:28:54;100801.34;;;15.35;100.00
59170;BME280;52474;52.236;5.114;2023-08-06T11:31:23;100869.56;;;15.80;100.00
59170;BME280;52474;52.236;5.114;2023-08-06T11:33:53;100861.81;;;15.69;100.00
59170;BME280;52474;52.236;5.114;2023-08-06T11:36:37;100803.66;;;15.22;100.00
59170;BME280;52474;52.236;5.114;2023-08-06T11:39:12;100830.22;;;15.40;100.00
59170;BME280;52474;52.236;5.114;2023-08-06T11:41:45;100880.50;;;15.61;100.00
59170;BME280;52474;52.236;5.114;2023-08-06T11:44:19;100856.97;;;15.56;100.00
59170;BME280;52474;52.236;5.114;2023-08-06T11:46:56;100875.84;;;15.63;100.00
59170;BME280;52474;52.236;5.114;2023-08-06T11:52:23;100828.22;;;15.42;100.00
59170;BME280;52474;52.236;5.114;2023-08-06T11:55:07;100883.06;;;15.79;100.00
59170;BME280;52474;52.236;5.114;2023-08-06T11:57:39;100833.75;;;15.49;100.00
59170;BME280;52474;52.236;5.114;2023-08-06T12:00:15;100757.06;;;14.92;100.00
59170;BME280;52474;52.236;5.114;2023-08-06T12:02:49;100889.22;;;15.79;100.00
59170;BME280;52474;52.236;5.114;2023-08-06T12:05:21;100884.06;;;15.78;100.00
59170;BME280;52474;52.236;5.114;2023-08-06T12:07:56;100880.25;;;15.88;100.00
59170;BME280;52474;52.236;5.114;2023-08-06T12:10:30;100882.09;;;15.88;100.00
59170;BME280;52474;52.236;5.114;2023-08-06T12:13:03;100829.59;;;15.62;100.00
59170;BME280;52474;52.236;5.114;2023-08-06T12:15:35;100843.13;;;15.61;100.00
59170;BME280;52474;52.236;5.114;2023-08-06T12:18:10;100792.38;;;15.36;100.00
59170;BME280;52474;52.236;5.114;2023-08-06T12:20:56;100842.28;;;15.60;100.00
59170;BME280;52474;52.236;5.114;2023-08-06T12:23:28;100887.59;;;16.03;100.00
59170;BME280;52474;52.236;5.114;2023-08-06T12:26:04;100851.84;;;15.71;100.00
59170;BME280;52474;52.236;5.114;2023-08-06T12:28:36;100872.06;;;15.90;100.00
59170;BME280;52474;52.236;5.114;2023-08-06T12:31:29;100840.47;;;15.69;100.00
59170;BME280;52474;52.236;5.114;2023-08-06T12:34:44;100839.63;;;15.68;100.00
59170;BME280;52474;52.236;5.114;2023-08-06T12:37:18;100861.88;;;15.85;100.00
59170;BME280;52474;52.236;5.114;2023-08-06T12:39:56;100868.25;;;16.01;100.00
59170;BME280;52474;52.236;5.114;2023-08-06T12:42:50;100901.63;;;16.21;100.00
59170;BME280;52474;52.236;5.114;2023-08-06T12:46:08;100912.50;;;16.28;100.00
59170;BME280;52474;52.236;5.114;2023-08-06T12:49:16;100900.47;;;16.16;100.00
59170;BME280;52474;52.236;5.114;2023-08-06T12:52:23;100908.97;;;16.19;100.00
59170;BME280;52474;52.236;5.114;2023-08-06T12:55:28;100875.53;;;15.82;100.00
59170;BME280;52474;52.236;5.114;2023-08-06T12:58:13;100873.25;;;15.96;100.00
59170;BME280;52474;52.236;5.114;2023-08-06T13:01:24;100869.41;;;15.90;100.00
59170;BME280;52474;52.236;5.114;2023-08-06T13:04:07;100822.75;;;15.60;100.00
59170;BME280;52474;52.236;5.114;2023-08-06T13:07:01;100931.53;;;16.33;100.00
59170;BME280;52474;52.236;5.114;2023-08-06T13:09:33;100870.09;;;16.00;100.00
59170;BME280;52474;52.236;5.114;2023-08-06T13:12:04;100901.31;;;16.16;100.00
59170;BME280;52474;52.236;5.114;2023-08-06T13:14:33;100909.16;;;16.34;100.00
59170;BME280;52474;52.236;5.114;2023-08-06T13:17:01;100937.22;;;16.46;100.00
59170;BME280;52474;52.236;5.114;2023-08-06T13:19:31;100902.31;;;16.23;100.00
59170;BME280;52474;52.236;5.114;2023-08-06T13:22:06;100941.75;;;16.62;100.00
59170;BME280;52474;52.236;5.114;2023-08-06T13:24:37;100895.97;;;16.33;100.00
59170;BME280;52474;52.236;5.114;2023-08-06T13:27:08;100944.91;;;16.66;100.00
59170;BME280;52474;52.236;5.114;2023-08-06T13:29:37;100945.91;;;16.73;100.00
59170;BME280;52474;52.236;5.114;2023-08-06T13:32:05;100951.09;;;16.74;100.00
59170;BME280;52474;52.236;5.114;2023-08-06T13:34:34;100909.50;;;16.47;100.00
59170;BME280;52474;52.236;5.114;2023-08-06T13:37:09;100891.97;;;16.45;100.00
59170;BME280;52474;52.236;5.114;2023-08-06T13:39:44;100934.88;;;16.68;100.00
59170;BME280;52474;52.236;5.114;2023-08-06T13:42:17;100936.06;;;16.57;100.00
59170;BME280;52474;52.236;5.114;2023-08-06T13:44:51;100909.81;;;16.52;100.00
59170;BME280;52474;52.236;5.114;2023-08-06T13:47:19;100937.38;;;16.69;100.00
59170;BME280;52474;52.236;5.114;2023-08-06T13:49:52;100949.94;;;16.85;100.00
59170;BME280;52474;52.236;5.114;2023-08-06T13:52:25;100946.91;;;16.72;100.00
59170;BME280;52474;52.236;5.114;2023-08-06T13:54:52;100942.59;;;16.55;100.00
59170;BME280;52474;52.236;5.114;2023-08-06T13:57:25;100853.38;;;15.98;100.00
59170;BME280;52474;52.236;5.114;2023-08-06T13:59:58;100898.13;;;16.21;100.00
59170;BME280;52474;52.236;5.114;2023-08-06T14:02:30;100979.34;;;16.69;100.00
59170;BME280;52474;52.236;5.114;2023-08-06T14:04:57;100977.50;;;16.69;100.00
59170;BME280;52474;52.236;5.114;2023-08-06T14:07:25;100922.50;;;16.34;100.00
59170;BME280;52474;52.236;5.114;2023-08-06T14:09:57;100978.34;;;16.70;100.00
59170;BME280;52474;52.236;5.114;2023-08-06T14:12:30;100964.47;;;16.58;100.00
59170;BME280;52474;52.236;5.114;2023-08-06T14:15:01;100969.28;;;16.46;100.00
59170;BME280;52474;52.236;5.114;2023-08-06T14:17:36;100864.06;;;15.90;100.00
59170;BME280;52474;52.236;5.114;2023-08-06T14:20:11;100927.19;;;16.16;100.00
59170;BME280;52474;52.236;5.114;2023-08-06T14:22:42;100986.53;;;16.60;100.00
59170;BME280;52474;52.236;5.114;2023-08-06T14:25:12;100934.03;;;16.26;100.00
59170;BME280;52474;52.236;5.114;2023-08-06T14:27:48;100946.25;;;16.37;100.00
59170;BME280;52474;52.236;5.114;2023-08-06T14:30:23;100990.03;;;16.52;100.00
59170;BME280;52474;52.236;5.114;2023-08-06T14:32:58;100996.41;;;16.51;100.00
59170;BME280;52474;52.236;5.114;2023-08-06T14:35:26;101003.56;;;16.75;100.00
59170;BME280;52474;52.236;5.114;2023-08-06T14:37:56;100946.91;;;16.15;100.00
59170;BME280;52474;52.236;5.114;2023-08-06T14:40:30;100973.59;;;15.98;100.00
59170;BME280;52474;52.236;5.114;2023-08-06T14:43:08;101018.53;;;16.19;100.00
59170;BME280;52474;52.236;5.114;2023-08-06T14:45:42;101010.97;;;15.90;100.00
59170;BME280;52474;52.236;5.114;2023-08-06T14:48:16;101037.06;;;16.13;100.00
59170;BME280;52474;52.236;5.114;2023-08-06T14:50:53;100988.47;;;15.66;100.00
59170;BME280;52474;52.236;5.114;2023-08-06T14:53:25;100994.47;;;15.60;100.00
59170;BME280;52474;52.236;5.114;2023-08-06T14:56:00;101067.16;;;15.80;100.00
59170;BME280;52474;52.236;5.114;2023-08-06T14:58:31;100967.66;;;15.36;100.00
59170;BME280;52474;52.236;5.114;2023-08-06T15:01:03;101003.41;;;15.51;100.00
59170;BME280;52474;52.236;5.114;2023-08-06T15:03:33;101000.22;;;15.48;100.00
59170;BME280;52474;52.236;5.114;2023-08-06T15:06:11;100988.34;;;15.42;100.00
59170;BME280;52474;52.236;5.114;2023-08-06T15:08:44;101070.22;;;15.94;100.00
59170;BME280;52474;52.236;5.114;2023-08-06T15:11:17;101079.72;;;15.88;100.00
59170;BME280;52474;52.236;5.114;2023-08-06T15:13:50;101040.94;;;15.76;100.00